Time;durP1;ratioP1;P1;durP2;ratioP2;P2;SDS_P1;SDS_P2;PMS_P1;PMS_P2;Temp;Humidity;BMP_temperature;BMP_pressure;BME280_temperature;BME280_humidity;BME280_pressure;Samples;Min_cycle;Max_cycle;Signal;HPM_P1;HPM_P2
2022/08/23 00:01:38;;;;;;;10.07;5.47;;;18.90;99.90;;;;;;4971141;28;20491;-78
2022/08/23 00:04:10;;;;;;;11.60;5.43;;;18.90;99.90;;;;;;4971240;28;20047;-78
2022/08/23 00:06:36;;;;;;;12.40;5.47;;;18.80;99.90;;;;;;4966361;28;20093;-78
2022/08/23 00:09:03;;;;;;;10.40;5.43;;;18.80;99.90;;;;;;4966848;28;20165;-78
2022/08/23 00:11:36;;;;;;;9.63;5.20;;;18.90;99.90;;;;;;4983188;28;20042;-78
2022/08/23 00:14:11;;;;;;;8.40;5.18;;;18.80;99.90;;;;;;4969258;28;20047;-78
2022/08/23 00:16:38;;;;;;;9.07;5.03;;;18.80;99.90;;;;;;4968955;28;20042;-78
2022/08/23 00:19:06;;;;;;;9.40;5.20;;;18.70;99.90;;;;;;4968770;28;20046;-78
2022/08/23 00:21:32;;;;;;;9.30;4.95;;;18.70;99.90;;;;;;4965913;28;20057;-78
2022/08/23 00:23:58;;;;;;;10.63;5.25;;;18.70;99.90;;;;;;4952220;28;20550;-78
2022/08/23 00:26:24;;;;;;;8.27;5.18;;;18.70;99.90;;;;;;4964670;28;20031;-78
2022/08/23 00:28:50;;;;;;;10.68;5.72;;;18.60;99.90;;;;;;4958102;28;20121;-78
2022/08/23 00:31:17;;;;;;;11.13;5.47;;;18.60;99.90;;;;;;4963001;28;20510;-79
2022/08/23 00:33:43;;;;;;;9.70;5.57;;;18.60;99.90;;;;;;4961427;28;20046;-78
2022/08/23 00:36:09;;;;;;;10.93;6.18;;;18.60;99.90;;;;;;4968629;28;20042;-78
2022/08/23 00:38:34;;;;;;;10.18;5.82;;;18.60;99.90;;;;;;4963505;28;20038;-78
2022/08/23 00:41:01;;;;;;;11.02;5.55;;;18.60;99.90;;;;;;4966929;28;20121;-78
2022/08/23 00:49:20;;;;;;;11.40;5.40;;;18.50;99.90;;;;;;4967092;28;20529;-78
2022/08/23 00:52:16;;;;;;;13.90;6.32;;;18.50;99.90;;;;;;4966678;28;20039;-78
2022/08/23 00:54:49;;;;;;;11.43;5.55;;;18.50;99.90;;;;;;4969931;28;20051;-78
2022/08/23 00:57:18;;;;;;;9.80;5.75;;;19.10;99.90;;;;;;4962801;28;20047;-78
2022/08/23 00:59:44;;;;;;;10.07;5.60;;;18.50;99.90;;;;;;4983583;28;20051;-78
2022/08/23 01:02:11;;;;;;;9.68;5.78;;;18.40;99.90;;;;;;4951945;28;20046;-78
2022/08/23 01:04:41;;;;;;;10.45;6.10;;;18.40;99.90;;;;;;4984437;28;20039;-78
2022/08/23 01:07:10;;;;;;;10.02;5.43;;;18.30;99.90;;;;;;4960535;28;20104;-78
2022/08/23 01:09:37;;;;;;;9.63;5.93;;;18.30;99.90;;;;;;4963915;28;20112;-78
2022/08/23 01:12:09;;;;;;;10.93;5.85;;;18.30;99.90;;;;;;4967832;28;20039;-77
2022/08/23 01:14:40;;;;;;;9.63;5.88;;;18.20;99.90;;;;;;4964866;28;20055;-79
2022/08/23 01:17:13;;;;;;;14.52;5.88;;;18.20;99.90;;;;;;4967523;28;20045;-77
2022/08/23 01:19:46;;;;;;;13.32;6.20;;;18.20;99.90;;;;;;4980803;28;20093;-78
2022/08/23 01:22:30;;;;;;;10.30;6.10;;;18.20;99.90;;;;;;4970893;28;20068;-78
2022/08/23 01:24:57;;;;;;;10.40;6.30;;;18.20;99.90;;;;;;4961778;28;20507;-78
2022/08/23 01:27:23;;;;;;;9.35;6.50;;;18.10;99.90;;;;;;4956421;28;20043;-78
2022/08/23 01:29:48;;;;;;;10.00;6.78;;;18.10;99.90;;;;;;4981792;28;20410;-78
2022/08/23 01:32:15;;;;;;;11.57;6.53;;;18.10;99.90;;;;;;4947994;28;20062;-78
2022/08/23 01:34:41;;;;;;;10.43;6.32;;;18.00;99.90;;;;;;4965271;28;20043;-78
2022/08/23 01:37:07;;;;;;;9.27;5.97;;;18.00;99.90;;;;;;4978980;28;20498;-78
2022/08/23 01:39:34;;;;;;;9.70;6.30;;;18.10;99.90;;;;;;4966622;28;20410;-78
2022/08/23 01:42:00;;;;;;;11.90;6.30;;;18.00;99.90;;;;;;4959776;28;20074;-78
2022/08/23 01:44:26;;;;;;;11.38;6.22;;;17.90;99.90;;;;;;4969032;28;20070;-78
2022/08/23 01:46:52;;;;;;;9.52;6.93;;;17.90;99.90;;;;;;4970815;28;20513;-78
2022/08/23 01:49:17;;;;;;;11.40;6.63;;;18.00;99.90;;;;;;4965918;28;20129;-78
2022/08/23 01:51:44;;;;;;;8.93;6.10;;;17.90;99.90;;;;;;4966779;28;20134;-78
2022/08/23 01:54:10;;;;;;;10.38;6.20;;;17.90;99.90;;;;;;4966246;28;20126;-78
2022/08/23 01:56:37;;;;;;;13.27;6.75;;;17.90;99.90;;;;;;4974267;28;20556;-78
2022/08/23 01:59:03;;;;;;;11.82;6.80;;;17.90;99.90;;;;;;4947574;28;20123;-78
2022/08/23 02:01:29;;;;;;;12.00;7.32;;;17.90;99.90;;;;;;4966789;28;20046;-78
2022/08/23 02:03:55;;;;;;;16.13;7.55;;;17.90;99.90;;;;;;4948231;28;20043;-78
2022/08/23 02:06:21;;;;;;;13.32;7.15;;;17.90;99.90;;;;;;4976246;28;20043;-78
2022/08/23 02:09:03;;;;;;;10.40;6.70;;;17.90;99.90;;;;;;4957409;28;20051;-78
2022/08/23 02:11:33;;;;;;;9.68;6.60;;;17.90;99.90;;;;;;4956087;28;20042;-78
2022/08/23 02:14:02;;;;;;;11.90;6.75;;;17.90;99.90;;;;;;4966338;28;20047;-78
2022/08/23 02:16:40;;;;;;;9.45;6.28;;;17.90;99.90;;;;;;4954576;28;20504;-78
2022/08/23 02:19:09;;;;;;;11.30;6.88;;;17.80;99.90;;;;;;4969759;28;20053;-78
2022/08/23 02:21:37;;;;;;;12.38;6.55;;;17.80;99.90;;;;;;4969820;28;20049;-78
2022/08/23 02:24:05;;;;;;;10.65;6.78;;;17.80;99.90;;;;;;4970323;28;20062;-78
2022/08/23 02:26:33;;;;;;;9.90;6.88;;;17.70;99.90;;;;;;4959925;28;20077;-78
2022/08/23 02:29:02;;;;;;;9.27;5.68;;;17.70;99.90;;;;;;4968316;28;20548;-78
2022/08/23 02:31:28;;;;;;;9.48;6.15;;;17.70;99.90;;;;;;4960900;28;20051;-78
2022/08/23 02:33:54;;;;;;;10.23;6.32;;;17.60;99.90;;;;;;4965132;28;20480;-78
2022/08/23 02:36:20;;;;;;;10.50;5.80;;;17.70;99.90;;;;;;4966826;28;20511;-78
2022/08/23 02:38:45;;;;;;;7.53;5.47;;;17.60;99.90;;;;;;4961012;28;20080;-78
2022/08/23 02:41:11;;;;;;;10.18;6.38;;;17.60;99.90;;;;;;4952875;28;20492;-78
2022/08/23 02:43:36;;;;;;;9.68;5.78;;;17.50;99.90;;;;;;4967995;28;20043;-78
2022/08/23 02:46:05;;;;;;;9.57;6.25;;;17.50;99.90;;;;;;4963058;28;20046;-77
2022/08/23 02:48:35;;;;;;;11.02;6.30;;;17.50;99.90;;;;;;4964198;28;20082;-78
2022/08/23 02:51:05;;;;;;;8.88;5.47;;;17.50;99.90;;;;;;4958626;28;20035;-77
2022/08/23 02:53:31;;;;;;;8.27;5.40;;;17.50;99.90;;;;;;4951398;28;20046;-77
2022/08/23 02:55:57;;;;;;;10.38;5.85;;;17.40;99.90;;;;;;4967018;28;20122;-77
2022/08/23 02:58:24;;;;;;;9.90;6.43;;;17.40;99.90;;;;;;4965299;28;20081;-78
2022/08/23 03:00:50;;;;;;;11.20;7.13;;;17.40;99.90;;;;;;4969629;28;20034;-78
2022/08/23 03:03:16;;;;;;;10.07;6.95;;;17.40;99.90;;;;;;4963022;28;20042;-78
2022/08/23 03:05:43;;;;;;;10.43;6.80;;;17.40;99.90;;;;;;4951900;28;20039;-77
2022/08/23 03:08:08;;;;;;;11.93;6.88;;;17.40;99.90;;;;;;4962670;28;20436;-77
2022/08/23 03:10:34;;;;;;;9.45;7.03;;;17.40;99.90;;;;;;4969311;28;20043;-77
2022/08/23 03:13:01;;;;;;;10.38;7.05;;;17.40;99.90;;;;;;4965226;28;20035;-77
2022/08/23 03:15:26;;;;;;;11.60;7.25;;;17.40;99.90;;;;;;4969848;28;20515;-78
2022/08/23 03:17:52;;;;;;;10.68;7.05;;;17.40;99.90;;;;;;4958615;28;20092;-79
2022/08/23 03:20:18;;;;;;;10.63;7.40;;;17.40;99.90;;;;;;4955586;28;20035;-78
2022/08/23 03:22:44;;;;;;;11.32;7.20;;;17.40;99.90;;;;;;4938884;28;20113;-78
2022/08/23 03:25:10;;;;;;;10.15;7.15;;;17.30;99.90;;;;;;4970148;28;20487;-78
2022/08/23 03:27:36;;;;;;;9.75;6.78;;;17.40;99.90;;;;;;4966455;28;20051;-78
2022/08/23 03:30:04;;;;;;;11.45;6.30;;;17.40;99.90;;;;;;4962098;28;20043;-78
2022/08/23 03:32:30;;;;;;;6.35;5.22;;;17.30;99.90;;;;;;4966290;28;20035;-78
2022/08/23 03:34:55;;;;;;;11.73;6.07;;;17.10;99.90;;;;;;4967829;28;20065;-77
2022/08/23 03:37:22;;;;;;;10.57;5.82;;;17.10;99.90;;;;;;4967821;28;20047;-78
2022/08/23 03:39:48;;;;;;;9.77;6.30;;;17.10;99.90;;;;;;4960717;28;20059;-77
2022/08/23 03:42:14;;;;;;;9.98;6.18;;;17.10;99.90;;;;;;4953064;28;20064;-78
2022/08/23 03:44:40;;;;;;;10.15;6.30;;;17.00;99.90;;;;;;4984045;28;20047;-78
2022/08/23 03:47:07;;;;;;;8.48;5.93;;;17.10;99.90;;;;;;4964550;28;20039;-78
2022/08/23 03:49:32;;;;;;;10.20;6.57;;;17.00;99.90;;;;;;4960007;28;20050;-78
2022/08/23 03:51:59;;;;;;;8.95;6.65;;;17.00;99.90;;;;;;4965007;28;20041;-78
2022/08/23 03:54:28;;;;;;;10.23;6.68;;;17.00;99.90;;;;;;4965842;28;20146;-77
2022/08/23 03:57:05;;;;;;;10.30;7.50;;;17.00;99.90;;;;;;4960974;28;20045;-77
2022/08/23 03:59:32;;;;;;;10.80;7.45;;;17.00;99.90;;;;;;4969004;28;20073;-77
2022/08/23 04:01:58;;;;;;;9.70;7.85;;;17.10;99.90;;;;;;4966804;28;20072;-77
2022/08/23 04:04:24;;;;;;;11.27;7.55;;;16.90;99.90;;;;;;4952496;28;20444;-78
2022/08/23 04:06:50;;;;;;;10.70;7.95;;;17.00;99.90;;;;;;4965103;28;20082;-77
2022/08/23 04:09:16;;;;;;;13.65;8.07;;;17.10;99.90;;;;;;4952398;28;20073;-77
2022/08/23 04:11:42;;;;;;;11.38;7.57;;;17.00;99.90;;;;;;4956136;28;20042;-76
2022/08/23 04:14:09;;;;;;;11.43;7.45;;;17.20;99.90;;;;;;4949032;28;20122;-78
2022/08/23 04:16:39;;;;;;;9.60;7.63;;;17.10;99.90;;;;;;4957074;28;20122;-77
2022/08/23 04:19:06;;;;;;;11.18;8.00;;;17.10;99.90;;;;;;4965027;28;20123;-78
2022/08/23 04:21:33;;;;;;;9.38;7.63;;;17.00;99.90;;;;;;4966220;28;20055;-78
2022/08/23 04:23:59;;;;;;;13.88;8.43;;;17.10;99.90;;;;;;4982406;28;20125;-78
2022/08/23 04:26:24;;;;;;;11.68;8.77;;;17.10;99.90;;;;;;4953345;28;20126;-78
2022/08/23 04:28:50;;;;;;;13.07;8.85;;;17.10;99.90;;;;;;4962131;28;20496;-78
2022/08/23 04:31:18;;;;;;;14.00;9.02;;;17.00;99.90;;;;;;4949845;28;20085;-78
2022/08/23 04:33:44;;;;;;;11.65;9.30;;;17.00;99.90;;;;;;4963702;28;20039;-78
2022/08/23 04:36:09;;;;;;;13.50;9.60;;;17.10;99.90;;;;;;4968585;28;20047;-78
2022/08/23 04:38:35;;;;;;;15.85;10.23;;;17.10;99.90;;;;;;4958699;28;20399;-79
2022/08/23 04:43:46;;;;;;;14.27;11.15;;;17.10;99.90;;;;;;4968606;28;20132;-78
2022/08/23 04:46:15;;;;;;;16.77;10.25;;;17.10;99.90;;;;;;4968816;28;20042;-78
2022/08/23 04:48:42;;;;;;;14.88;9.77;;;17.10;99.90;;;;;;4960321;28;20085;-77
2022/08/23 04:51:09;;;;;;;13.95;10.20;;;17.10;99.90;;;;;;4959481;28;20092;-78
2022/08/23 04:53:35;;;;;;;18.40;10.88;;;17.10;99.90;;;;;;4968558;28;20082;-78
2022/08/23 04:56:02;;;;;;;11.93;9.95;;;17.30;99.90;;;;;;4968156;28;20070;-78
2022/08/23 04:58:30;;;;;;;12.73;9.95;;;17.10;99.90;;;;;;4961315;28;20049;-78
2022/08/23 05:00:59;;;;;;;12.07;9.93;;;17.10;99.90;;;;;;4958783;28;21828;-78
2022/08/23 05:03:25;;;;;;;13.35;9.65;;;17.10;99.90;;;;;;4968536;28;20082;-75
2022/08/23 05:05:52;;;;;;;11.80;9.60;;;17.10;99.90;;;;;;4943148;28;20134;-77
2022/08/23 05:08:18;;;;;;;13.68;10.15;;;17.00;99.90;;;;;;4956910;28;20050;-79
2022/08/23 05:10:44;;;;;;;12.90;10.40;;;17.10;99.90;;;;;;4953865;28;20077;-79
2022/08/23 05:13:09;;;;;;;12.75;10.45;;;17.10;99.90;;;;;;4963448;28;20252;-79
2022/08/23 05:15:35;;;;;;;13.98;9.68;;;17.10;99.90;;;;;;4959415;28;20759;-78
2022/08/23 05:18:01;;;;;;;12.85;9.75;;;17.10;99.90;;;;;;4960453;28;20074;-78
2022/08/23 05:20:30;;;;;;;14.05;11.00;;;17.10;99.90;;;;;;4955228;28;20504;-78
2022/08/23 05:22:58;;;;;;;13.30;10.55;;;17.10;99.90;;;;;;4950584;28;20043;-78
2022/08/23 05:25:48;;;;;;;15.75;11.45;;;17.10;99.90;;;;;;4951100;28;20503;-78
2022/08/23 05:28:09;;;;;;;14.80;11.95;;;17.20;99.90;;;;;;4955135;28;20126;-77
2022/08/23 05:30:35;;;;;;;15.13;11.70;;;17.20;99.90;;;;;;4958482;28;20126;-78
2022/08/23 05:33:00;;;;;;;14.15;11.75;;;17.30;99.90;;;;;;4964338;28;20483;-78
2022/08/23 05:35:26;;;;;;;16.63;12.23;;;17.30;99.90;;;;;;4966861;28;20066;-78
2022/08/23 05:37:51;;;;;;;13.98;11.25;;;17.30;99.90;;;;;;4966831;28;20073;-78
2022/08/23 05:40:17;;;;;;;15.02;11.85;;;17.30;99.90;;;;;;4962398;28;20038;-78
2022/08/23 05:42:43;;;;;;;15.90;12.15;;;17.40;99.90;;;;;;4968107;28;20043;-78
2022/08/23 05:45:09;;;;;;;17.15;13.35;;;17.40;99.90;;;;;;4945689;28;20031;-78
2022/08/23 05:47:35;;;;;;;16.73;12.38;;;17.50;99.90;;;;;;4952312;28;20049;-78
2022/08/23 05:50:00;;;;;;;16.10;12.15;;;17.60;99.90;;;;;;4965704;28;20046;-78
2022/08/23 05:52:26;;;;;;;14.73;12.43;;;17.60;99.90;;;;;;4971251;28;20509;-78
2022/08/23 05:54:52;;;;;;;15.88;11.80;;;17.70;99.90;;;;;;4970880;28;20061;-78
2022/08/23 05:57:17;;;;;;;17.75;12.52;;;17.60;99.90;;;;;;4969173;28;20042;-77
2022/08/23 05:59:43;;;;;;;14.85;12.30;;;17.70;99.90;;;;;;4962342;28;20476;-78
2022/08/23 06:02:09;;;;;;;17.60;13.30;;;17.70;99.90;;;;;;4970992;28;20499;-78
2022/08/23 06:04:34;;;;;;;17.30;13.40;;;17.70;99.90;;;;;;4946022;28;20047;-78
2022/08/23 06:07:00;;;;;;;17.88;13.40;;;17.70;99.90;;;;;;4970002;28;20039;-78
2022/08/23 06:09:26;;;;;;;15.85;13.90;;;17.70;99.90;;;;;;4970243;28;20035;-78
2022/08/23 06:11:52;;;;;;;16.73;12.15;;;17.90;99.90;;;;;;4966404;28;20522;-78
2022/08/23 06:14:18;;;;;;;17.70;13.10;;;17.90;99.90;;;;;;4963937;28;20047;-78
2022/08/23 06:16:46;;;;;;;13.98;11.82;;;17.90;99.90;;;;;;4963241;28;20420;-78
2022/08/23 06:19:13;;;;;;;17.27;12.48;;;18.00;99.90;;;;;;4961646;28;20039;-78
2022/08/23 06:21:40;;;;;;;13.50;11.88;;;18.00;99.90;;;;;;4968349;28;20053;-78
2022/08/23 06:24:06;;;;;;;14.05;11.68;;;18.10;99.90;;;;;;4954646;28;20065;-77
2022/08/23 06:26:38;;;;;;;15.60;12.10;;;18.10;99.90;;;;;;4969517;28;20042;-77
2022/08/23 06:29:07;;;;;;;15.38;12.38;;;18.20;99.90;;;;;;4970134;28;20049;-77
2022/08/23 06:31:45;;;;;;;14.07;11.85;;;18.20;99.90;;;;;;4969808;28;20541;-78
2022/08/23 06:34:17;;;;;;;14.02;11.52;;;18.30;99.90;;;;;;4954404;28;20071;-78
2022/08/23 06:36:43;;;;;;;13.10;10.90;;;18.40;99.90;;;;;;4969539;28;20039;-78
2022/08/23 06:39:10;;;;;;;15.25;11.18;;;18.40;99.90;;;;;;4971643;28;20662;-78
2022/08/23 06:41:36;;;;;;;14.95;11.95;;;18.40;99.90;;;;;;4955115;28;20452;-78
2022/08/23 06:44:03;;;;;;;16.10;11.85;;;18.40;99.90;;;;;;4962320;28;20054;-78
2022/08/23 06:46:29;;;;;;;13.93;12.35;;;18.50;99.90;;;;;;4944561;28;20039;-79
2022/08/23 06:48:56;;;;;;;13.15;11.75;;;18.30;99.90;;;;;;4968608;28;20047;-78
2022/08/23 06:51:40;;;;;;;17.83;11.18;;;18.40;99.90;;;;;;4963367;28;20047;-78
2022/08/23 06:54:09;;;;;;;13.15;11.35;;;18.30;99.90;;;;;;4959799;28;20110;-78
2022/08/23 06:56:35;;;;;;;14.68;11.77;;;18.30;99.90;;;;;;4966581;28;20054;-78
2022/08/23 06:59:05;;;;;;;17.92;12.15;;;18.30;99.90;;;;;;4963221;28;20577;-78
2022/08/23 07:01:52;;;;;;;15.77;10.85;;;18.30;99.90;;;;;;4964931;28;20043;-78
2022/08/23 07:04:31;;;;;;;15.80;11.40;;;18.40;99.90;;;;;;4970622;28;20129;-78
2022/08/23 07:06:57;;;;;;;16.63;11.50;;;18.50;99.90;;;;;;4945328;28;20043;-78
2022/08/23 07:09:27;;;;;;;13.73;11.77;;;18.60;99.90;;;;;;4961513;28;20039;-78
2022/08/23 07:11:54;;;;;;;14.80;11.82;;;19.00;99.90;;;;;;4971178;28;20050;-78
2022/08/23 07:14:21;;;;;;;14.63;11.38;;;18.80;99.90;;;;;;4970004;28;20118;-78
2022/08/23 07:16:52;;;;;;;15.60;12.80;;;18.90;99.90;;;;;;4967386;28;20558;-78
2022/08/23 07:19:21;;;;;;;14.60;10.25;;;18.90;99.90;;;;;;4957971;28;20403;-79
2022/08/23 07:21:47;;;;;;;15.10;11.63;;;19.00;99.90;;;;;;4956489;28;20043;-78
2022/08/23 07:24:17;;;;;;;14.23;10.68;;;19.10;99.90;;;;;;4951764;28;20035;-78
2022/08/23 07:26:44;;;;;;;14.93;11.00;;;19.10;99.90;;;;;;4969391;28;20043;-78
2022/08/23 07:29:11;;;;;;;17.52;10.63;;;19.30;99.90;;;;;;4956795;28;20043;-78
2022/08/23 07:31:43;;;;;;;15.00;11.82;;;19.30;99.90;;;;;;4962933;28;20055;-78
2022/08/23 07:34:10;;;;;;;14.23;10.73;;;19.40;99.90;;;;;;4955568;28;20035;-78
2022/08/23 07:36:38;;;;;;;16.10;12.00;;;19.40;99.90;;;;;;4971299;28;20399;-78
2022/08/23 07:39:08;;;;;;;15.90;11.30;;;19.50;99.90;;;;;;4957130;28;20153;-78
2022/08/23 07:41:34;;;;;;;14.90;11.65;;;19.50;99.90;;;;;;4960998;28;20058;-78
2022/08/23 07:44:03;;;;;;;12.60;10.00;;;19.60;99.90;;;;;;4970684;28;20125;-78
2022/08/23 07:46:31;;;;;;;13.93;10.25;;;19.70;99.90;;;;;;4968752;28;20035;-78
2022/08/23 07:48:58;;;;;;;16.30;10.45;;;19.70;99.90;;;;;;4965468;28;20043;-78
2022/08/23 07:51:26;;;;;;;11.75;9.60;;;19.80;99.90;;;;;;4959057;28;20074;-78
2022/08/23 07:53:51;;;;;;;15.05;10.73;;;19.90;99.90;;;;;;4965292;28;20035;-78
2022/08/23 07:56:19;;;;;;;13.23;10.40;;;20.00;99.90;;;;;;4967449;28;20045;-78
2022/08/23 07:58:45;;;;;;;12.20;10.20;;;20.00;99.90;;;;;;4937842;28;20081;-78
2022/08/23 08:01:21;;;;;;;12.13;9.25;;;20.10;99.90;;;;;;4969396;28;20038;-78
2022/08/23 08:03:51;;;;;;;14.23;9.32;;;20.30;99.90;;;;;;4962405;28;20418;-78
2022/08/23 08:06:20;;;;;;;10.88;9.55;;;20.30;99.90;;;;;;4967153;28;20043;-78
2022/08/23 08:08:47;;;;;;;13.93;8.90;;;20.40;99.90;;;;;;4947479;28;20031;-78
2022/08/23 08:11:15;;;;;;;10.18;8.93;;;20.50;99.90;;;;;;4954999;28;20073;-78
2022/08/23 08:13:42;;;;;;;16.08;9.15;;;20.60;99.90;;;;;;4961777;28;20122;-78
2022/08/23 08:16:09;;;;;;;12.95;9.70;;;20.70;99.90;;;;;;4969333;28;20045;-78
2022/08/23 08:18:36;;;;;;;13.48;9.32;;;20.80;99.90;;;;;;4969253;28;20543;-78
2022/08/23 08:21:03;;;;;;;12.05;8.80;;;20.80;99.90;;;;;;4986446;28;20116;-79
2022/08/23 08:23:29;;;;;;;12.05;8.15;;;20.90;99.90;;;;;;4966357;28;20047;-79
2022/08/23 08:26:04;;;;;;;11.88;8.90;;;21.00;99.90;;;;;;4951422;28;20105;-79
2022/08/23 08:28:30;;;;;;;10.07;9.07;;;21.10;99.90;;;;;;4967893;28;20042;-79
2022/08/23 08:30:57;;;;;;;11.07;9.05;;;21.20;99.90;;;;;;4963464;28;20046;-78
2022/08/23 08:33:24;;;;;;;10.10;8.23;;;21.20;99.90;;;;;;4965324;28;20062;-78
2022/08/23 08:35:54;;;;;;;10.23;8.18;;;21.30;99.90;;;;;;4965897;28;20043;-79
2022/08/23 08:38:19;;;;;;;9.15;7.90;;;21.40;99.90;;;;;;4957486;28;20039;-79
2022/08/23 08:41:04;;;;;;;12.10;7.55;;;21.50;99.90;;;;;;4970726;28;20058;-79
2022/08/23 08:43:36;;;;;;;9.93;7.78;;;21.60;99.90;;;;;;4969403;28;20043;-79
2022/08/23 08:46:12;;;;;;;10.95;7.20;;;21.70;99.90;;;;;;4968035;28;20042;-79
2022/08/23 08:48:44;;;;;;;11.52;6.97;;;21.80;99.90;;;;;;4964562;28;20042;-79
2022/08/23 08:51:30;;;;;;;12.90;7.07;;;22.10;99.90;;;;;;4967877;28;20506;-78
2022/08/23 08:53:56;;;;;;;12.82;7.22;;;22.20;99.90;;;;;;4953317;28;20034;-78
2022/08/23 08:56:31;;;;;;;9.10;6.72;;;22.30;99.90;;;;;;4960443;28;20035;-78
2022/08/23 08:59:01;;;;;;;10.30;6.35;;;22.40;99.90;;;;;;4958002;28;20035;-78
2022/08/23 09:01:28;;;;;;;7.75;6.18;;;22.50;99.90;;;;;;4957165;28;20901;-78
2022/08/23 09:03:56;;;;;;;7.72;5.85;;;22.60;99.90;;;;;;4958062;28;20043;-78
2022/08/23 09:06:40;;;;;;;12.77;7.10;;;22.70;99.90;;;;;;4956613;28;20480;-78
2022/08/23 09:09:08;;;;;;;12.82;8.00;;;22.80;99.90;;;;;;4961451;28;20053;-78
2022/08/23 09:12:00;;;;;;;12.20;7.43;;;22.80;99.90;;;;;;4968039;28;20046;-78
2022/08/23 09:14:28;;;;;;;12.32;6.78;;;22.90;99.90;;;;;;5001664;28;20046;-78
2022/08/23 09:17:11;;;;;;;8.82;6.63;;;23.00;99.90;;;;;;4960073;28;20043;-78
2022/08/23 09:19:38;;;;;;;14.23;7.03;;;23.20;99.90;;;;;;4961324;28;20066;-79
2022/08/23 09:22:17;;;;;;;9.65;6.68;;;23.20;99.90;;;;;;4983035;28;20387;-79
2022/08/23 09:24:43;;;;;;;12.20;6.70;;;23.30;99.90;;;;;;4955843;28;20047;-79
2022/08/23 09:27:09;;;;;;;8.77;6.75;;;23.50;99.90;;;;;;4968876;28;20050;-79
2022/08/23 09:29:37;;;;;;;11.27;6.53;;;23.60;99.90;;;;;;4968496;28;20049;-79
2022/08/23 09:32:23;;;;;;;8.23;6.65;;;23.60;99.90;;;;;;4965897;28;20130;-79
2022/08/23 09:34:49;;;;;;;8.80;5.70;;;23.70;99.90;;;;;;4964370;28;20082;-79
2022/08/23 09:37:21;;;;;;;8.48;5.40;;;23.90;99.90;;;;;;4954968;28;20583;-79
2022/08/23 09:40:18;;;;;;;9.30;5.03;;;24.00;99.90;;;;;;4984397;28;20043;-79
2022/08/23 09:42:46;;;;;;;10.88;6.32;;;24.10;99.90;;;;;;4957643;28;20062;-79
2022/08/23 09:45:30;;;;;;;8.52;5.65;;;24.20;99.90;;;;;;4966346;28;20528;-79
2022/08/23 09:47:56;;;;;;;10.27;6.38;;;24.40;99.90;;;;;;4993683;28;20081;-79
2022/08/23 09:50:27;;;;;;;7.90;4.97;;;24.50;99.90;;;;;;4959640;28;20078;-79
2022/08/23 09:53:09;;;;;;;8.18;5.30;;;24.70;99.90;;;;;;4957965;28;20118;-79
2022/08/23 09:55:50;;;;;;;8.73;5.15;;;24.80;98.90;;;;;;4966648;28;20050;-79
2022/08/23 09:58:35;;;;;;;8.70;4.90;;;25.10;98.90;;;;;;4992728;28;20505;-78
2022/08/23 10:01:22;;;;;;;9.45;4.50;;;25.30;98.70;;;;;;4962048;28;20042;-79
2022/08/23 10:04:09;;;;;;;6.47;3.92;;;25.60;98.20;;;;;;4984552;28;20096;-79
2022/08/23 10:06:35;;;;;;;6.47;3.72;;;25.90;97.60;;;;;;4968431;28;20051;-79
2022/08/23 10:09:04;;;;;;;6.72;4.40;;;26.20;98.10;;;;;;4970746;28;20102;-79
2022/08/23 10:11:44;;;;;;;11.18;4.82;;;26.30;97.70;;;;;;4963187;28;20050;-79
2022/08/23 10:14:13;;;;;;;12.05;4.80;;;26.20;96.00;;;;;;4972019;28;20030;-79
2022/08/23 10:17:09;;;;;;;7.55;4.10;;;26.00;95.90;;;;;;4946872;28;20100;-79
2022/08/23 10:20:11;;;;;;;7.38;4.60;;;26.00;95.50;;;;;;4942540;28;20509;-79
2022/08/23 10:22:44;;;;;;;6.57;3.95;;;26.00;95.50;;;;;;4953241;28;20046;-79
2022/08/23 10:25:32;;;;;;;8.32;3.58;;;26.10;96.10;;;;;;4970383;28;20475;-79
2022/08/23 10:30:55;;;;;;;7.07;4.45;;;26.60;95.80;;;;;;4969807;28;20506;-79
2022/08/23 10:33:33;;;;;;;9.48;3.90;;;26.80;95.70;;;;;;4971211;28;20043;-79
2022/08/23 10:35:59;;;;;;;6.20;3.58;;;27.00;95.70;;;;;;4964855;28;20035;-79
2022/08/23 10:38:36;;;;;;;9.27;4.40;;;27.10;95.80;;;;;;4962700;28;20054;-79
2022/08/23 10:41:30;;;;;;;7.45;4.18;;;27.30;95.40;;;;;;4960115;28;20516;-80
2022/08/23 10:44:40;;;;;;;7.07;4.50;;;27.40;94.30;;;;;;4963137;28;20502;-79
2022/08/23 10:47:32;;;;;;;7.22;4.63;;;27.60;94.50;;;;;;4979805;28;20062;-79
2022/08/23 10:50:03;;;;;;;8.15;4.15;;;27.80;93.60;;;;;;4963580;28;20038;-79
2022/08/23 10:52:35;;;;;;;5.57;4.25;;;27.90;94.00;;;;;;4986390;28;20399;-79
2022/08/23 10:55:16;;;;;;;5.53;3.40;;;28.00;93.50;;;;;;4965383;28;20039;-79
2022/08/23 10:57:46;;;;;;;8.38;4.25;;;28.10;92.80;;;;;;4990151;28;20122;-79
2022/08/23 11:00:26;;;;;;;9.60;4.05;;;28.20;92.70;;;;;;4948936;28;20035;-79
2022/08/23 11:03:00;;;;;;;6.60;4.10;;;28.20;91.90;;;;;;4970978;28;20042;-79
2022/08/23 11:05:34;;;;;;;8.18;3.97;;;28.20;91.70;;;;;;4974716;28;20046;-79
2022/08/23 11:08:10;;;;;;;8.93;4.15;;;28.30;91.40;;;;;;4959865;28;20065;-79
2022/08/23 11:10:38;;;;;;;7.20;3.40;;;28.30;90.50;;;;;;4961412;28;20101;-79
2022/08/23 11:13:10;;;;;;;7.15;3.72;;;28.40;90.40;;;;;;4968423;28;20042;-79
2022/08/23 11:15:53;;;;;;;7.03;3.70;;;28.40;90.20;;;;;;4959647;28;20047;-79
2022/08/23 11:18:25;;;;;;;6.93;3.50;;;28.40;89.20;;;;;;4985049;28;20078;-79
2022/08/23 11:20:52;;;;;;;8.48;3.88;;;28.50;88.60;;;;;;4970601;28;20046;-79
2022/08/23 11:23:37;;;;;;;6.95;3.20;;;28.50;89.10;;;;;;4962642;28;20105;-79
2022/08/23 11:26:10;;;;;;;7.20;3.03;;;28.60;86.10;;;;;;4964290;28;20484;-79
2022/08/23 11:28:44;;;;;;;5.55;3.08;;;28.70;86.70;;;;;;4962977;28;20049;-79
2022/08/23 11:31:21;;;;;;;5.90;3.15;;;28.70;84.80;;;;;;4975837;28;20042;-80
2022/08/23 11:33:57;;;;;;;7.07;3.20;;;28.60;83.80;;;;;;5000977;28;20064;-79
2022/08/23 11:36:25;;;;;;;5.80;2.60;;;28.70;84.70;;;;;;4961583;28;20033;-80
2022/08/23 11:38:54;;;;;;;5.25;3.08;;;28.70;84.10;;;;;;4970015;28;20103;-79
2022/08/23 11:41:55;;;;;;;7.13;2.92;;;28.80;83.70;;;;;;4963262;28;20048;-77
2022/08/23 11:44:33;;;;;;;7.03;3.10;;;28.90;78.90;;;;;;4959939;28;20563;-77
2022/08/23 11:47:02;;;;;;;3.75;2.40;;;28.90;80.00;;;;;;4962630;28;20507;-77
2022/08/23 11:49:30;;;;;;;5.38;2.60;;;28.90;80.20;;;;;;4968801;28;20187;-77
2022/08/23 11:51:59;;;;;;;7.55;3.13;;;29.00;80.00;;;;;;4960358;28;20130;-78
2022/08/23 11:54:40;;;;;;;6.53;2.83;;;29.10;80.00;;;;;;4964329;28;20487;-77
2022/08/23 11:57:27;;;;;;;9.00;3.22;;;29.30;77.90;;;;;;4965625;28;20038;-78
2022/08/23 12:00:13;;;;;;;7.97;3.15;;;29.40;76.70;;;;;;4990510;28;20049;-78
2022/08/23 12:03:00;;;;;;;7.30;2.80;;;29.40;76.20;;;;;;4965416;28;20510;-78
2022/08/23 12:05:59;;;;;;;7.03;2.97;;;29.50;76.00;;;;;;4959608;28;20051;-78
2022/08/23 12:08:44;;;;;;;6.03;2.75;;;29.60;75.80;;;;;;4952275;28;20046;-78
2022/08/23 12:11:12;;;;;;;6.45;2.95;;;29.60;74.20;;;;;;4966761;28;20054;-78
2022/08/23 12:13:55;;;;;;;5.38;2.92;;;29.50;73.80;;;;;;4965396;28;20043;-77
2022/08/23 12:16:22;;;;;;;5.95;2.85;;;29.30;72.10;;;;;;4944033;28;20117;-78
2022/08/23 12:18:48;;;;;;;6.03;2.92;;;29.30;73.20;;;;;;4968715;28;20125;-78
2022/08/23 12:21:34;;;;;;;5.55;2.83;;;29.20;73.30;;;;;;4962611;28;20568;-77
2022/08/23 12:24:12;;;;;;;7.10;3.08;;;29.00;72.20;;;;;;4959572;28;20046;-77
2022/08/23 12:26:43;;;;;;;5.10;2.83;;;28.90;72.90;;;;;;4967737;28;20078;-77
2022/08/23 12:29:22;;;;;;;5.78;2.75;;;29.10;74.20;;;;;;4983927;28;20039;-77
2022/08/23 12:32:06;;;;;;;6.78;2.83;;;29.20;73.20;;;;;;4969142;28;20081;-77
2022/08/23 12:34:32;;;;;;;6.88;3.13;;;29.30;72.60;;;;;;4964864;28;20058;-77
2022/08/23 12:37:27;;;;;;;6.97;2.90;;;29.60;73.30;;;;;;4963840;28;20050;-77
2022/08/23 12:39:56;;;;;;;5.00;2.80;;;29.80;73.00;;;;;;4961178;28;20097;-77
2022/08/23 12:42:35;;;;;;;4.55;3.00;;;29.70;71.80;;;;;;4961926;28;20097;-78
2022/08/23 12:45:16;;;;;;;7.03;3.03;;;29.70;72.10;;;;;;4976075;28;20149;-77
2022/08/23 12:47:53;;;;;;;6.75;2.90;;;29.70;72.10;;;;;;4966754;28;20157;-77
2022/08/23 12:50:30;;;;;;;5.72;3.20;;;29.70;72.70;;;;;;4965225;28;20043;-77
2022/08/23 12:52:59;;;;;;;5.30;2.92;;;29.50;72.00;;;;;;4964102;28;20503;-77
2022/08/23 12:55:33;;;;;;;4.53;3.08;;;29.30;72.40;;;;;;4961820;28;20684;-77
2022/08/23 12:58:00;;;;;;;7.10;3.53;;;29.20;71.20;;;;;;4942228;28;20074;-78
2022/08/23 13:00:32;;;;;;;6.70;3.25;;;29.10;70.60;;;;;;4965514;28;20525;-77
2022/08/23 13:03:16;;;;;;;7.15;3.65;;;29.10;70.00;;;;;;4967268;28;20043;-77
2022/08/23 13:05:48;;;;;;;5.72;3.45;;;29.10;68.80;;;;;;4961027;28;20488;-76
2022/08/23 13:08:45;;;;;;;6.03;3.33;;;29.10;68.60;;;;;;4968225;28;20422;-76